Aérodrome :
LOGIN :

S'inscrire | Disclaimer

   EN    FR    IT 

 










Légende :    VFR   VFR Marginal   IFR   IFR Intensif   IFR Très Intensif
Visi : 
Plafond : 
>= 8 km
>= 3000ft
5 à 8 km
1000 à 3000 ft
1500m à 5 km
500 à 1000 ft
800 à 1500m
200 à 500 ft
< 800m
< 200 ft
Symboles :   Orages  Brouillard  Fortes neiges  Fortes précipitations  Vent > 20 kt
SIGMETs :   Divers  Orages  Givrage  Turbulence  Onde Orograph.  Cendres Volcan.







- Altitude de l'aérodrome : -11 ft
- Code IATA : AMS


EHAM - Amsterdam Schiphol

DERNIER METAR :
  • 220055Z 11006KT CAVOK 14/07 Q1010 NOSIG

METARs EXPIRÉS :
  • 220025Z 11005KT 080V140 CAVOK 14/07 Q1011 NOSIG
  • 212355Z 11007KT CAVOK 15/07 Q1011 NOSIG
  • 212325Z 11009KT CAVOK 16/07 Q1011 NOSIG
  • 212255Z 12010KT CAVOK 16/08 Q1011 NOSIG
  • 212225Z 11010KT CAVOK 16/08 Q1012 NOSIG

TAF TAF EHAM
Valide du 22 à 00h jusqu'au 23 à 06h UTC


212258Z 2200/2306 11009KT CAVOK
BECMG 2208/2211 16011KT
BECMG 2216/2218 13005KT
BECMG 2219/2222 25012KT
PROB40
TEMPO 2219/2303 27015G25KT 4000 SHRA RA BKN012 SCT030CB
BECMG 2300/2303 21007KT 5000 BR SCT008 BKN012
Pas de NOTAMs connus pour ce terrain.



MET'MAP, la Météo Aéronautique d'un coup d'oeil ! - Copyright ORBIFLY Décembre 2007 - Disclaimer

ORBIFLY MET'MAP TEAM :

Programmation & Développement : Alexandra Zaïnal
Conception & Développement : Baudouin d'Aumeries
Co-Programmation & Développement : Marc-Olivier Méhu
Soutien technique & logistique : Manuel Goepfert

Contact : metmap@orbifly.com




SOURCES & CREDITS :

   NOAA